Joaquim Pires, Brazil
Current Conditions -  °F | °C
As of 10:00 AM on Saturday 20 Dec 2014 (Local Time) from SBPB Reporting Station
Few Clouds Few Clouds  
Wind Chill: 93°   Ceiling: Unl
Heat Index: 101°   Visibility: 6mi
Dew Point: 72°   Wind: 20mph
Humidity: 49%   Direction: 80°E
Pressure: 29.88"   Gusts: NA
Location:  3.51°S, 42.2°W
Report Text: SBPB 201300Z 08017KT 9999 FEW017 34/22 Q1012
Loading
Personal Weather Stations






























Interactive Weather Map New forecast layout! Learn more

10-Day Weather Forecast

Advertisements
Track Severe Weather on mobile